Date,TemperatureHighF,TemperatureAvgF,TemperatureLowF,DewpointHighF,DewpointAvgF,DewpointLowF,HumidityHigh,HumidityAvg,HumidityLow,PressureMaxIn,PressureMinIn,WindSpeedMaxMPH,WindSpeedAvgMPH,GustSpeedMaxMPH,PrecipitationSumIn
2012-9-30,55,54,54,50,50,50,86,86,84,29.93,29.91,0,0,2,0.02
2012-10-1,70,56,54,55,51,49,87,83,49,29.99,29.93,0,0,4,0.27
2012-10-2,68,62,58,64,60,53,98,92,79,30.00,29.92,1,0,2,0.53
2012-10-3,90,71,63,70,65,59,99,84,38,30.15,29.99,2,0,5,0.00
2012-10-4,86,70,56,70,61,48,99,78,31,30.21,30.14,3,0,7,0.02
2012-10-5,87,66,51,58,54,46,97,70,27,30.20,29.98,3,0,7,0.00
2012-10-6,73,59,47,60,50,39,95,72,41,30.12,29.88,8,0,17,0.00
2012-10-7,54,48,42,46,43,38,92,83,64,30.22,30.06,0,0,2,0.05
2012-10-8,48,43,36,43,39,34,95,87,72,30.34,30.22,1,0,4,0.05
2012-10-9,68,52,42,47,42,40,94,74,36,30.27,30.08,2,0,4,0.00
2012-10-10,74,54,41,53,42,34,95,67,28,30.14,29.90,5,0,11,0.02
2012-10-11,72,53,42,37,29,12,74,44,11,30.33,30.14,7,1,16,0.00
2012-10-12,66,47,35,44,35,30,91,67,28,30.46,30.18,11,1,19,0.00
2012-10-13,65,46,29,38,31,26,92,62,24,30.55,30.26,6,1,11,0.00
2012-10-14,80,62,47,53,46,37,79,57,32,30.26,29.93,6,1,14,0.00
2012-10-15,74,64,54,63,53,40,90,67,36,29.93,29.70,7,1,14,0.25
2012-10-16,71,55,40,42,37,28,86,54,21,29.98,29.88,8,2,18,0.00
2012-10-17,74,52,35,46,39,32,92,67,28,30.04,29.91,4,0,7,0.00
2012-10-18,71,58,44,58,49,40,94,73,49,29.95,29.81,9,1,19,0.39
2012-10-19,74,60,50,58,53,42,98,79,51,29.84,29.64,4,0,6,0.01
2012-10-20,71,53,42,48,38,25,92,62,19,29.99,29.71,6,1,15,0.00
2012-10-21,70,51,36,43,34,25,92,60,20,30.18,29.99,6,1,11,0.00
2012-10-22,81,53,34,44,36,25,92,62,13,30.26,30.12,3,0,8,0.00
2012-10-23,89,63,47,54,48,41,88,63,20,30.17,30.05,4,0,6,0.00
2012-10-24,88,64,53,57,51,39,93,68,20,30.18,30.09,4,0,8,0.00
2012-10-25,80,63,49,58,53,46,94,74,43,30.23,30.14,5,1,10,0.00
2012-10-26,74,64,56,58,55,53,90,75,49,30.21,30.08,5,1,10,0.00
2012-10-27,72,63,58,57,52,45,90,70,39,30.08,29.91,6,1,11,0.00
2012-10-28,59,56,50,53,49,45,93,77,61,29.91,29.69,8,2,14,0.39
2012-10-29,50,46,39,48,43,36,92,88,84,29.69,28.87,14,5,28,2.80
2012-10-30,42,40,38,38,36,35,91,87,82,29.49,28.86,12,2,25,0.76
2012-10-31,54,45,37,37,34,30,91,67,41,29.69,29.47,7,1,13,0.00
2012-11-1,54,46,36,36,31,28,76,58,41,29.78,29.67,6,1,10,0.00
2012-11-2,52,42,30,36,27,22,89,59,32,29.99,29.77,9,2,17,0.00
2012-11-3,52,44,39,28,26,24,62,50,35,30.11,29.98,9,3,21,0.00
2012-11-4,56,42,32,32,26,21,75,56,27,30.12,30.03,8,1,12,0.00
2012-11-5,53,39,28,26,24,20,80,57,28,30.21,30.08,8,1,13,0.00
2012-11-6,53,36,24,33,23,19,86,62,28,30.22,30.03,4,0,8,0.00
2012-11-7,42,38,33,27,24,20,76,59,45,30.04,29.93,5,1,9,0.00
2012-11-8,57,42,28,33,16,-5,80,44,10,30.14,29.97,9,2,17,0.00
2012-11-9,66,47,34,34,29,22,84,53,20,30.26,30.12,8,1,13,0.00
2012-11-10,73,47,29,39,30,18,90,59,15,30.37,30.23,4,0,8,0.00
2012-11-11,76,53,32,43,33,28,89,54,20,30.47,30.35,4,0,8,0.00
2012-11-12,69,58,44,56,48,37,89,70,54,30.39,30.14,9,2,21,0.43
2012-11-13,51,42,27,44,29,18,92,63,28,30.53,30.25,7,2,13,0.54
2012-11-14,46,32,25,32,23,20,87,72,41,30.59,30.46,5,0,9,0.00
2012-11-15,48,37,26,31,28,22,88,70,49,30.46,30.33,4,0,6,0.00
2012-11-16,60,41,28,37,27,18,92,63,20,30.49,30.33,6,0,11,0.00
2012-11-17,60,37,23,36,24,17,88,65,20,30.64,30.48,6,0,11,0.00
2012-11-18,58,41,27,36,30,24,89,69,37,30.64,30.52,5,0,9,0.00
2012-11-19,56,43,30,36,33,26,87,70,41,30.52,30.26,4,0,8,0.00
2012-11-20,52,39,28,37,32,25,90,78,54,30.26,30.11,2,0,4,0.00
2012-11-21,63,38,27,42,29,24,91,74,29,30.27,30.16,3,0,5,0.00
2012-11-22,67,40,24,38,25,10,89,63,13,30.31,30.15,2,0,4,0.00
2012-11-23,71,47,26,41,28,21,89,55,15,30.15,29.79,11,2,22,0.00
2012-11-24,44,37,34,21,14,10,45,38,26,30.09,29.90,11,4,18,0.00
2012-11-25,50,35,24,18,15,2,74,46,14,30.10,29.93,5,1,11,0.00
2012-11-26,64,39,23,31,21,5,83,55,10,30.21,30.00,3,0,7,0.00
2012-11-27,42,38,35,36,33,28,91,81,59,30.28,30.18,4,1,8,0.28
2012-11-28,50,39,27,32,22,11,78,53,21,30.39,30.26,8,1,14,0.00
2012-11-29,57,35,22,27,18,4,82,57,13,30.47,30.33,5,0,9,0.00
2012-11-30,62,38,23,29,21,9,83,56,15,30.38,30.28,6,0,11,0.00
2012-12-1,40,36,25,31,28,21,84,73,64,30.47,30.34,2,0,4,0.00
2012-12-2,66,48,31,46,38,28,90,69,36,30.45,30.14,3,0,6,0.01
2012-12-3,72,54,42,53,47,39,91,78,48,30.29,30.17,3,0,5,0.00
2012-12-4,80,60,46,58,46,37,98,67,24,30.25,30.01,4,1,8,0.00
2012-12-5,65,52,33,47,30,17,61,44,19,30.34,30.01,8,3,17,0.00
2012-12-6,52,36,21,29,21,16,83,57,26,30.40,30.20,4,1,8,0.00
2012-12-7,55,46,36,37,33,22,84,60,48,30.20,30.03,6,0,9,0.05
2012-12-8,73,53,36,48,42,34,92,69,38,30.06,29.88,2,0,4,0.04
2012-12-9,50,49,48,49,47,46,97,95,89,30.21,29.96,3,0,9,0.39
2012-12-10,67,53,43,60,50,34,99,87,61,29.96,29.59,8,1,16,0.00
2012-12-11,51,42,29,38,28,22,81,60,35,30.25,29.75,8,2,15,0.01
2012-12-12,43,35,28,30,24,22,86,68,42,30.46,30.25,4,1,8,0.00
2012-12-13,53,32,21,30,22,16,88,68,24,30.50,30.35,4,0,8,0.00
2012-12-14,64,36,19,30,18,2,87,59,10,30.36,30.22,3,0,5,0.00
2012-12-15,56,41,26,32,23,14,85,54,20,30.31,30.10,6,1,15,0.00
2012-12-16,49,44,42,39,36,28,87,74,50,30.11,29.85,4,0,9,0.00
2012-12-17,50,44,36,48,41,34,93,89,81,29.87,29.56,7,1,14,0.05
2012-12-18,58,45,34,52,35,26,99,72,39,29.84,29.55,11,2,17,0.01
2012-12-19,59,42,28,36,30,24,87,65,35,30.19,29.81,8,1,12,0.00
2012-12-20,46,40,32,43,32,28,91,73,52,30.21,29.39,10,2,21,0.22
2012-12-21,46,40,36,43,23,14,94,53,39,29.62,29.36,12,5,22,0.12
2012-12-22,45,37,26,18,15,10,63,41,25,30.06,29.61,15,5,28,0.01
2012-12-23,54,33,18,23,14,0,80,54,12,30.07,29.89,4,0,9,0.00
2012-12-24,26,22,22,20,18,17,84,82,76,30.06,30.00,2,0,3,0.00
2012-12-25,34,24,22,31,20,18,88,84,83,30.25,30.05,1,0,2,0.22
2012-12-26,35,32,29,32,29,24,92,88,70,30.24,29.54,4,1,8,0.33
2012-12-27,39,35,32,32,25,21,92,68,53,30.07,29.53,0,0,0,0.12
2012-12-28,45,36,30,26,23,20,77,60,38,30.17,30.02,2,0,4,0.15
2012-12-29,49,37,31,34,26,23,81,66,51,30.03,29.59,13,2,22,0.08
2012-12-30,42,34,22,23,18,11,70,51,29,30.34,29.82,10,4,24,0.08
2012-12-31,39,29,19,21,17,12,79,61,38,30.33,30.00,2,0,6,0.00
2013-1-1,44,36,27,28,24,18,71,63,47,30.03,29.93,4,0,7,0.00